Grants Pass, Oregon
Current Conditions -  °F | °C
As of 5:56 AM on Thursday 23 Oct 2014 (Local Time) from KSXT Reporting Station
Moderate Rain Moderate Rain  
Wind Chill:   Ceiling: 100
Heat Index:   Visibility: 0.25mi
Dew Point:   Wind: 14mph
Humidity: 100%   Direction: 180°S
Pressure: 29.87"   Gusts: 23mph
Location:  42.44°N, 123.32°W
Report Text: KSXT 231256Z AUTO 18012G20KT 1/4SM RA FG VV001 09/09 A2987 RMK AO2 SLP100 P0013 T00940094
Loading
Personal Weather Stations






























Interactive Weather Map
Tropical Storm Tracking
New forecast layout! Learn more

10-Day Weather Forecast

Advertisements
Track Severe Weather on mobile